Rostein — LLHI — position and weather

sailwx.info

Track history (hours):
 
Tides and Currents Weather Stations Pressure Air Temp Water Temp Dewpoint Dewpoint Depression Visibility Wind Speed Wind Dir Waves Ship Positions

Rostein

Last reported at 2014-Aug-20 02:19 UTC. Time now 2014-Aug-22 15:48 UTC.
Position N 67°44' E 014°31'.

Length 57 m; draft 5 m.

Type: Cargo ship. MMSI: 257210000.

Date/timePositionNaut miles runAvg speedWind from/ knotsBaromVisibWave heightAir tempDewpointWater temp
2014-Aug-20 02:19N 67°44' E 014°31'911.9
2014-Aug-20 01:33N 67°35' E 014°30'1211.7
2014-Aug-20 00:33N 67°23' E 014°26'1211.6
2014-Aug-19 23:33N 67°14' E 014°09'3611.2
2014-Aug-19 20:19N 66°45' E 013°12'911.9
2014-Aug-19 19:33N 66°36' E 013°04'1111.1
2014-Aug-19 18:32N 66°25' E 012°59'1511.8
2014-Aug-19 17:17N 66°11' E 012°51'811.6
2014-Aug-19 16:33N 66°04' E 012°38'6811.3
2014-Aug-19 10:29N 65°00' E 011°38'1111.6
2014-Aug-19 09:33N 64°53' E 011°18'  
2014-Aug-15 08:26N 64°50' E 011°11'1011.6
2014-Aug-15 07:33N 64°57' E 011°29'8111.0
2014-Aug-15 00:10N 66°11' E 012°51'711.4
2014-Aug-14 23:33N 66°17' E 012°56'4510.9
2014-Aug-14 19:27N 66°59' E 013°36'1111.5
2014-Aug-14 18:32N 67°06' E 013°57'1211.7
2014-Aug-14 17:33N 67°16' E 014°12'1211.7
2014-Aug-14 16:33N 67°26' E 014°27'1311.5
2014-Aug-14 15:24N 67°39' E 014°31'26110.5
2014-Aug-13 14:28N 70°38' E 023°22'6 6.9
2014-Aug-13 13:33N 70°40' E 023°40'0 0.0
2014-Aug-13 12:25N 70°40' E 023°40'  
2014-Aug-10 02:23N 70°36' E 023°11'  
Track history (hours):
 
Tides and Currents Weather Stations Pressure Air Temp Water Temp Dewpoint Dewpoint Depression Visibility Wind Speed Wind Dir Waves Ship Positions

Rostein

Last reported at 2014-Aug-20 02:19 UTC. Time now 2014-Aug-22 15:48 UTC.
Position N 67°44' E 014°31'.

Length 57 m; draft 5 m.

Type: Cargo ship. MMSI: 257210000.

Date/timePositionNaut miles runAvg speedWind from/ knotsBaromVisibWave heightAir tempDewpointWater temp
2014-Aug-20 02:19N 67°44' E 014°31'911.9
2014-Aug-20 01:33N 67°35' E 014°30'1211.7
2014-Aug-20 00:33N 67°23' E 014°26'1211.6
2014-Aug-19 23:33N 67°14' E 014°09'3611.2
2014-Aug-19 20:19N 66°45' E 013°12'911.9
2014-Aug-19 19:33N 66°36' E 013°04'1111.1
2014-Aug-19 18:32N 66°25' E 012°59'1511.8
2014-Aug-19 17:17N 66°11' E 012°51'811.6
2014-Aug-19 16:33N 66°04' E 012°38'6811.3
2014-Aug-19 10:29N 65°00' E 011°38'1111.6
2014-Aug-19 09:33N 64°53' E 011°18'  
2014-Aug-15 08:26N 64°50' E 011°11'1011.6
2014-Aug-15 07:33N 64°57' E 011°29'8111.0
2014-Aug-15 00:10N 66°11' E 012°51'711.4
2014-Aug-14 23:33N 66°17' E 012°56'4510.9
2014-Aug-14 19:27N 66°59' E 013°36'1111.5
2014-Aug-14 18:32N 67°06' E 013°57'1211.7
2014-Aug-14 17:33N 67°16' E 014°12'1211.7
2014-Aug-14 16:33N 67°26' E 014°27'1311.5
2014-Aug-14 15:24N 67°39' E 014°31'26110.5
2014-Aug-13 14:28N 70°38' E 023°22'6 6.9
2014-Aug-13 13:33N 70°40' E 023°40'0 0.0
2014-Aug-13 12:25N 70°40' E 023°40'  
2014-Aug-10 02:23N 70°36' E 023°11'  

Dump ship's entire track history